createdAt,value
2022-08-14T00:02:03.583Z,41.10
2022-08-14T00:04:42.376Z,41.23
2022-08-14T00:07:13.889Z,42.95
2022-08-14T00:10:02.541Z,42.96
2022-08-14T00:12:53.454Z,43.52
2022-08-14T00:15:44.285Z,44.41
2022-08-14T00:18:30.891Z,45.39
2022-08-14T00:21:11.140Z,45.52
2022-08-14T00:23:40.624Z,45.73
2022-08-14T00:26:08.357Z,46.04
2022-08-14T00:28:49.328Z,45.43
2022-08-14T00:31:16.864Z,46.14
2022-08-14T00:33:51.717Z,45.92
2022-08-14T00:36:47.108Z,46.49
2022-08-14T00:39:18.047Z,47.40
2022-08-14T00:41:47.804Z,47.48
2022-08-14T00:44:21.522Z,47.88
2022-08-14T00:47:03.833Z,47.41
2022-08-14T00:49:38.323Z,47.76
2022-08-14T00:52:17.840Z,47.56
2022-08-14T00:54:57.715Z,48.29
2022-08-14T00:57:34.087Z,49.36
2022-08-14T01:00:34.193Z,50.21
2022-08-14T01:03:04.237Z,50.01
2022-08-14T01:05:50.848Z,50.10
2022-08-14T01:08:51.458Z,49.86
2022-08-14T01:11:19.449Z,50.55
2022-08-14T01:14:00.832Z,52.66
2022-08-14T01:16:31.449Z,50.91
2022-08-14T01:19:19.582Z,52.10
2022-08-14T01:21:53.487Z,53.72
2022-08-14T01:24:24.754Z,54.32
2022-08-14T01:27:00.522Z,53.79
2022-08-14T01:29:58.748Z,53.47
2022-08-14T01:32:27.891Z,53.28
2022-08-14T01:35:17.243Z,55.01
2022-08-14T01:37:56.375Z,56.33
2022-08-14T01:40:36.710Z,56.98
2022-08-14T01:43:18.328Z,57.77
2022-08-14T01:45:57.752Z,59.39
2022-08-14T01:48:37.388Z,59.11
2022-08-14T01:51:19.297Z,57.91
2022-08-14T01:53:57.487Z,58.95
2022-08-14T01:56:40.932Z,58.50
2022-08-14T01:59:38.267Z,59.00
2022-08-14T02:02:17.561Z,58.34
2022-08-14T02:04:55.901Z,59.26
2022-08-14T02:07:44.629Z,59.27
2022-08-14T02:10:15.638Z,59.25
2022-08-14T02:12:54.029Z,59.35
2022-08-14T02:15:25.773Z,59.46
2022-08-14T02:17:54.616Z,59.68
2022-08-14T02:20:23.834Z,59.28
2022-08-14T02:22:54.557Z,61.13
2022-08-14T02:25:23.264Z,60.47
2022-08-14T02:28:25.370Z,60.69
2022-08-14T02:30:38.483Z,61.47
2022-08-14T02:33:07.580Z,60.93
2022-08-14T02:35:40.965Z,61.35
2022-08-14T02:38:11.850Z,61.53
2022-08-14T02:40:58.914Z,61.54
2022-08-14T02:43:36.651Z,63.75
2022-08-14T02:46:12.612Z,63.51
2022-08-14T02:49:01.270Z,64.30
2022-08-14T02:51:31.166Z,63.36
2022-08-14T02:54:01.843Z,63.68
2022-08-14T02:57:15.477Z,64.82
2022-08-14T02:59:18.988Z,64.95
2022-08-14T03:01:50.836Z,65.88
2022-08-14T03:04:22.738Z,65.03
2022-08-14T03:07:06.552Z,67.07
2022-08-14T03:10:26.129Z,66.16
2022-08-14T03:12:32.364Z,66.24
2022-08-14T03:15:14.352Z,68.18
2022-08-14T03:17:57.613Z,66.84
2022-08-14T03:20:30.262Z,66.38
2022-08-14T03:23:03.083Z,67.72
2022-08-14T03:25:37.634Z,68.71
2022-08-14T03:28:14.324Z,68.16
2022-08-14T03:31:00.414Z,68.48
2022-08-14T03:33:37.402Z,68.84
2022-08-14T03:37:28.621Z,67.65
2022-08-14T03:39:15.115Z,66.87
2022-08-14T03:41:55.036Z,69.43
2022-08-14T03:45:19.340Z,69.19
2022-08-14T03:47:12.204Z,69.05
2022-08-14T03:49:49.623Z,68.52
2022-08-14T03:52:39.056Z,68.89
2022-08-14T03:55:12.457Z,68.59
2022-08-14T03:57:41.102Z,69.00
2022-08-14T04:00:44.313Z,70.96
2022-08-14T04:03:05.560Z,71.01
2022-08-14T04:05:43.475Z,70.63
2022-08-14T04:08:29.502Z,71.05
2022-08-14T04:11:01.831Z,71.80
2022-08-14T04:13:37.039Z,72.60
2022-08-14T04:16:22.932Z,74.27
2022-08-14T04:18:58.305Z,74.13
2022-08-14T04:21:29.491Z,74.76
2022-08-14T04:24:01.893Z,75.27
2022-08-14T04:26:42.427Z,75.22
2022-08-14T04:29:15.337Z,77.39
2022-08-14T04:32:59.323Z,77.69
2022-08-14T04:34:33.914Z,77.03
2022-08-14T04:37:24.818Z,77.08
2022-08-14T04:40:15.158Z,79.36
2022-08-14T04:43:02.048Z,77.73
2022-08-14T04:45:38.657Z,78.14
2022-08-14T04:48:39.460Z,80.58
2022-08-14T04:51:15.981Z,78.55
2022-08-14T04:53:49.042Z,81.41
2022-08-14T04:56:31.412Z,82.56
2022-08-14T04:59:10.301Z,81.22
2022-08-14T05:01:50.067Z,81.52
2022-08-14T05:04:23.030Z,83.42
2022-08-14T05:06:55.235Z,83.92
2022-08-14T05:09:28.991Z,81.56
2022-08-14T05:13:10.786Z,86.23
2022-08-14T05:14:53.715Z,83.70
2022-08-14T05:17:31.847Z,83.31
2022-08-14T05:21:10.992Z,83.65
2022-08-14T05:23:01.266Z,82.44
2022-08-14T05:25:30.658Z,82.98
2022-08-14T05:28:10.946Z,85.19
2022-08-14T05:30:43.665Z,83.61
2022-08-14T05:33:12.869Z,83.81
2022-08-14T05:35:42.501Z,82.00
2022-08-14T05:38:30.701Z,82.19
2022-08-14T05:40:59.746Z,79.76
2022-08-14T05:43:40.726Z,78.29
2022-08-14T05:46:15.684Z,78.61
2022-08-14T05:48:43.994Z,76.84
2022-08-14T05:51:13.491Z,76.60
2022-08-14T05:53:42.470Z,76.20
2022-08-14T05:56:11.133Z,76.41
2022-08-14T05:58:41.440Z,76.10
2022-08-14T06:01:10.233Z,76.94
2022-08-14T06:03:40.177Z,77.55
2022-08-14T06:06:08.390Z,76.67
2022-08-14T06:08:41.650Z,78.63
2022-08-14T06:11:10.503Z,77.24
2022-08-14T06:13:45.729Z,77.90
2022-08-14T06:16:18.801Z,77.03
2022-08-14T06:18:52.332Z,76.82
2022-08-14T06:21:22.915Z,76.00
2022-08-14T06:23:52.141Z,76.02
2022-08-14T06:26:20.759Z,73.91
2022-08-14T06:28:52.131Z,73.02
2022-08-14T06:31:21.418Z,73.77
2022-08-14T06:35:03.398Z,72.75
2022-08-14T06:36:39.198Z,72.43
2022-08-14T06:39:10.308Z,70.61
2022-08-14T06:41:58.411Z,69.46
2022-08-14T06:44:32.325Z,70.48
2022-08-14T06:47:03.497Z,68.31
2022-08-14T06:49:42.732Z,70.21
2022-08-14T06:52:15.334Z,68.58
2022-08-14T06:54:45.670Z,68.48
2022-08-14T06:57:13.924Z,66.05
2022-08-14T06:59:43.388Z,65.87
2022-08-14T07:02:29.971Z,65.54
2022-08-14T07:05:20.848Z,67.09
2022-08-14T07:07:52.111Z,67.59
2022-08-14T07:10:24.757Z,68.63
2022-08-14T07:13:03.689Z,67.32
2022-08-14T07:15:42.092Z,67.44
2022-08-14T07:18:12.205Z,66.41
2022-08-14T07:20:42.328Z,64.38
2022-08-14T07:23:20.889Z,64.17
2022-08-14T07:25:53.388Z,63.18
2022-08-14T07:28:43.101Z,62.28
2022-08-14T07:31:13.131Z,62.55
2022-08-14T07:33:51.578Z,61.55
2022-08-14T07:36:26.411Z,60.93
2022-08-14T07:38:58.534Z,60.61
2022-08-14T07:41:31.378Z,60.47
2022-08-14T07:44:29.095Z,59.35
2022-08-14T07:46:50.378Z,58.79
2022-08-14T07:49:19.868Z,58.66
2022-08-14T07:51:49.351Z,58.56
2022-08-14T07:54:22.810Z,56.20
2022-08-14T07:57:12.143Z,55.16
2022-08-14T07:59:44.455Z,56.32
2022-08-14T08:02:20.254Z,55.84
2022-08-14T08:04:59.145Z,55.17
2022-08-14T08:07:32.081Z,53.60
2022-08-14T08:10:46.826Z,53.03
2022-08-14T08:13:22.309Z,53.56
2022-08-14T08:15:57.327Z,53.98
2022-08-14T08:18:29.617Z,51.50
2022-08-14T08:21:00.274Z,52.66
2022-08-14T08:23:39.820Z,50.91
2022-08-14T08:26:11.024Z,51.29
2022-08-14T08:28:38.356Z,50.36
2022-08-14T08:31:12.681Z,49.68
2022-08-14T08:33:43.560Z,50.95
2022-08-14T08:36:18.764Z,49.92
2022-08-14T08:39:16.330Z,49.85
2022-08-14T08:41:55.763Z,47.05
2022-08-14T08:44:34.295Z,48.80
2022-08-14T08:47:07.892Z,48.32
2022-08-14T08:49:48.310Z,49.09
2022-08-14T08:52:30.890Z,46.62
2022-08-14T08:55:04.325Z,48.96
2022-08-14T08:57:37.880Z,46.98
2022-08-14T09:00:25.554Z,47.74
2022-08-14T09:03:11.677Z,46.27
2022-08-14T09:06:56.968Z,47.52
2022-08-14T09:08:53.907Z,47.18
2022-08-14T09:11:24.461Z,45.71
2022-08-14T09:13:54.590Z,43.87
2022-08-14T09:16:26.169Z,43.98
2022-08-14T09:18:55.193Z,44.63
2022-08-14T09:21:23.767Z,44.47
2022-08-14T09:24:26.181Z,44.16
2022-08-14T09:26:49.274Z,43.42
2022-08-14T09:29:22.872Z,43.30
2022-08-14T09:31:58.884Z,42.48
2022-08-14T09:35:41.190Z,42.90
2022-08-14T09:38:56.487Z,44.71
2022-08-14T09:42:33.626Z,43.77
2022-08-14T09:45:20.849Z,43.79
2022-08-14T09:47:57.304Z,41.93
2022-08-14T09:50:48.341Z,41.87
2022-08-14T09:54:19.164Z,42.71
2022-08-14T09:56:51.708Z,42.74
2022-08-14T09:59:28.250Z,44.14
2022-08-14T10:01:59.798Z,47.42
2022-08-14T10:04:33.395Z,46.56
2022-08-14T10:07:05.833Z,47.84
2022-08-14T10:09:35.475Z,47.02
2022-08-14T10:12:18.751Z,48.29
2022-08-14T10:14:53.353Z,49.58
2022-08-14T10:17:27.504Z,51.26
2022-08-14T10:19:58.200Z,50.50
2022-08-14T10:23:22.233Z,53.71
2022-08-14T10:25:19.749Z,48.96
2022-08-14T10:27:59.002Z,50.67
2022-08-14T10:30:37.119Z,50.66
2022-08-14T10:33:05.012Z,51.82
2022-08-14T10:35:47.974Z,53.26
2022-08-14T10:38:27.805Z,55.43
2022-08-14T10:40:59.355Z,53.29
2022-08-14T10:43:31.644Z,53.17
2022-08-14T10:46:21.689Z,54.39
2022-08-14T10:49:26.597Z,56.79
2022-08-14T10:52:21.962Z,59.76
2022-08-14T10:54:50.618Z,57.02
2022-08-14T10:57:28.188Z,56.54
2022-08-14T11:00:20.645Z,57.95
2022-08-14T11:03:09.684Z,57.67
2022-08-14T11:05:55.614Z,58.67
2022-08-14T11:08:34.331Z,58.85
2022-08-14T11:11:06.117Z,57.81
2022-08-14T11:13:34.552Z,55.15
2022-08-14T11:16:03.750Z,56.89
2022-08-14T11:18:37.006Z,54.33
2022-08-14T11:21:09.668Z,53.92
2022-08-14T11:23:41.327Z,53.05
2022-08-14T11:26:16.437Z,53.30
2022-08-14T11:28:48.612Z,53.76
2022-08-14T11:31:24.127Z,52.36
2022-08-14T11:33:57.897Z,51.00
2022-08-14T11:37:02.029Z,52.14
2022-08-14T11:39:34.987Z,53.17
2022-08-14T11:42:57.913Z,52.48
2022-08-14T11:45:04.218Z,54.38
2022-08-14T11:48:10.597Z,53.95
2022-08-14T11:50:36.879Z,53.54
2022-08-14T11:53:42.120Z,50.54
2022-08-14T11:56:11.105Z,49.41
2022-08-14T11:58:40.152Z,49.38
2022-08-14T12:01:10.559Z,47.69
2022-08-14T12:03:52.081Z,47.57
2022-08-14T12:06:28.721Z,45.78
2022-08-14T12:09:08.886Z,44.36
2022-08-14T12:11:47.254Z,44.05
2022-08-14T12:14:34.842Z,41.64
2022-08-14T12:17:12.277Z,38.04
2022-08-14T12:19:56.541Z,37.22
2022-08-14T12:22:43.974Z,35.72
2022-08-14T12:25:30.527Z,34.96
2022-08-14T12:28:27.448Z,34.71
2022-08-14T12:31:00.488Z,34.55
2022-08-14T12:33:34.448Z,34.18
2022-08-14T12:36:20.690Z,34.30
2022-08-14T12:38:54.165Z,35.69
2022-08-14T12:41:29.019Z,35.85
2022-08-14T12:44:08.320Z,36.45
2022-08-14T12:46:43.619Z,37.46
2022-08-14T12:49:18.728Z,38.08
2022-08-14T12:52:01.019Z,38.15
2022-08-14T12:54:32.415Z,38.69
2022-08-14T12:57:20.195Z,39.76
2022-08-14T12:59:49.487Z,40.53
2022-08-14T13:02:27.178Z,41.82
2022-08-14T13:04:58.506Z,43.23
2022-08-14T13:07:32.512Z,43.99
2022-08-14T13:10:12.865Z,43.34
2022-08-14T13:13:15.495Z,43.81
2022-08-14T13:15:47.672Z,45.53
2022-08-14T13:18:17.064Z,47.57
2022-08-14T13:20:51.374Z,48.69
2022-08-14T13:23:31.823Z,48.31
2022-08-14T13:26:01.152Z,49.18
2022-08-14T13:28:34.135Z,48.63
2022-08-14T13:31:11.441Z,48.15
2022-08-14T13:33:41.251Z,48.10
2022-08-14T13:36:11.113Z,47.29
2022-08-14T13:38:55.095Z,47.66
2022-08-14T13:41:31.796Z,48.38
2022-08-14T13:44:04.829Z,49.66
2022-08-14T13:46:35.273Z,50.09
2022-08-14T13:49:02.611Z,48.54
2022-08-14T13:51:37.610Z,49.68
2022-08-14T13:54:10.467Z,50.86
2022-08-14T13:56:42.145Z,51.38
2022-08-14T13:59:10.695Z,51.92
2022-08-14T14:01:43.312Z,52.48
2022-08-14T14:04:23.253Z,52.34
2022-08-14T14:06:52.208Z,52.46
2022-08-14T14:09:32.577Z,50.75
2022-08-14T14:12:49.206Z,51.44
2022-08-14T14:15:05.268Z,51.12
2022-08-14T14:17:36.813Z,52.83
2022-08-14T14:20:15.135Z,52.07
2022-08-14T14:23:01.573Z,52.96
2022-08-14T14:25:38.639Z,53.46
2022-08-14T14:28:24.563Z,52.62
2022-08-14T14:30:57.190Z,52.41
2022-08-14T14:33:47.666Z,53.15
2022-08-14T14:36:26.572Z,53.52
2022-08-14T14:39:07.292Z,54.45
2022-08-14T14:41:43.517Z,53.28
2022-08-14T14:44:16.035Z,53.52
2022-08-14T14:46:53.041Z,54.50
2022-08-14T14:49:31.761Z,55.11
2022-08-14T14:52:23.296Z,55.96
2022-08-14T14:55:00.232Z,54.56
2022-08-14T14:57:35.259Z,53.96
2022-08-14T15:00:12.594Z,55.14
2022-08-14T15:02:48.089Z,57.86
2022-08-14T15:05:22.605Z,59.01
2022-08-14T15:07:52.814Z,57.57
2022-08-14T15:10:27.862Z,57.95
2022-08-14T15:13:04.150Z,58.73
2022-08-14T15:15:37.263Z,58.37
2022-08-14T15:18:35.903Z,59.03
2022-08-14T15:20:58.972Z,59.92
2022-08-14T15:23:43.514Z,62.29
2022-08-14T15:26:24.454Z,60.60
2022-08-14T15:29:06.093Z,59.82
2022-08-14T15:31:37.145Z,60.63
2022-08-14T15:34:44.794Z,62.35
2022-08-14T15:37:00.228Z,62.25
2022-08-14T15:39:29.408Z,60.76
2022-08-14T15:42:02.986Z,61.22
2022-08-14T15:44:36.600Z,61.90
2022-08-14T15:47:11.488Z,62.42
2022-08-14T15:49:39.813Z,63.83
2022-08-14T15:52:08.116Z,62.69
2022-08-14T15:54:38.648Z,63.40
2022-08-14T15:57:10.283Z,64.82
2022-08-14T16:00:39.962Z,65.31
2022-08-14T16:02:58.841Z,67.59
2022-08-14T16:05:28.004Z,68.25
2022-08-14T16:08:28.852Z,67.13
2022-08-14T16:11:09.424Z,68.14
2022-08-14T16:13:42.960Z,66.41
2022-08-14T16:16:34.769Z,67.97
2022-08-14T16:19:21.079Z,69.68
2022-08-14T16:22:01.376Z,67.78
2022-08-14T16:25:01.929Z,68.91
2022-08-14T16:30:21.023Z,71.11
2022-08-14T16:32:59.793Z,73.33
2022-08-14T16:35:42.245Z,72.01
2022-08-14T16:38:47.940Z,73.67
2022-08-14T16:41:17.034Z,74.58
2022-08-14T16:43:46.432Z,74.54
2022-08-14T16:46:22.315Z,75.12
2022-08-14T16:48:55.298Z,71.99
2022-08-14T16:51:29.566Z,75.38
2022-08-14T16:54:00.607Z,75.73
2022-08-14T16:56:36.456Z,76.56
2022-08-14T16:59:20.013Z,78.32
2022-08-14T17:02:01.105Z,79.09
2022-08-14T17:04:35.453Z,81.51
2022-08-14T17:07:14.027Z,81.53
2022-08-14T17:09:49.180Z,83.48
2022-08-14T17:12:35.196Z,83.73
2022-08-14T17:15:14.987Z,81.74
2022-08-14T17:17:58.408Z,80.90
2022-08-14T17:20:53.207Z,79.17
2022-08-14T17:23:15.225Z,77.88
2022-08-14T17:28:51.362Z,80.52
2022-08-14T17:31:18.461Z,79.71
2022-08-14T17:33:51.811Z,81.38
2022-08-14T17:36:24.676Z,79.64
2022-08-14T17:39:17.606Z,78.34
2022-08-14T17:42:03.206Z,78.84
2022-08-14T17:44:46.059Z,77.93
2022-08-14T17:47:18.391Z,76.76
2022-08-14T17:49:51.821Z,75.58
2022-08-14T17:52:34.904Z,75.50
2022-08-14T17:55:12.524Z,76.39
2022-08-14T17:57:59.889Z,76.42
2022-08-14T18:00:28.557Z,77.84
2022-08-14T18:02:58.953Z,75.89
2022-08-14T18:06:07.634Z,76.99
2022-08-14T18:08:33.138Z,77.95
2022-08-14T18:11:03.299Z,76.61
2022-08-14T18:13:51.840Z,77.36
2022-08-14T18:16:20.303Z,74.41
2022-08-14T18:18:51.540Z,73.53
2022-08-14T18:21:42.678Z,77.38
2022-08-14T18:24:28.736Z,75.98
2022-08-14T18:27:23.472Z,80.10
2022-08-14T18:29:59.852Z,81.77
2022-08-14T18:32:59.093Z,81.03
2022-08-14T18:35:58.054Z,78.51
2022-08-14T18:38:45.852Z,79.99
2022-08-14T18:41:36.757Z,79.17
2022-08-14T18:44:10.716Z,81.21
2022-08-14T18:47:10.188Z,77.91
2022-08-14T18:49:57.969Z,81.17
2022-08-14T18:52:36.368Z,79.27
2022-08-14T18:55:16.048Z,80.60
2022-08-14T18:57:59.733Z,81.20
2022-08-14T19:00:32.773Z,79.64
2022-08-14T19:03:39.253Z,83.12
2022-08-14T19:06:11.208Z,83.57
2022-08-14T19:08:50.150Z,85.21
2022-08-14T19:11:34.210Z,82.68
2022-08-14T19:14:07.173Z,83.53
2022-08-14T19:16:42.762Z,84.40
2022-08-14T19:19:13.974Z,85.98
2022-08-14T19:21:56.048Z,87.69
2022-08-14T19:24:45.207Z,88.04
2022-08-14T19:27:26.429Z,90.77
2022-08-14T19:30:21.318Z,90.48
2022-08-14T19:32:57.026Z,90.35
2022-08-14T19:35:43.575Z,92.18
2022-08-14T19:38:59.289Z,90.81
2022-08-14T19:41:34.336Z,90.02
2022-08-14T19:44:19.502Z,97.53
2022-08-14T19:47:02.599Z,98.38
2022-08-14T19:50:24.593Z,94.70
2022-08-14T19:52:39.573Z,96.39
2022-08-14T19:55:34.475Z,97.03
2022-08-14T19:58:07.475Z,96.80
2022-08-14T20:00:52.068Z,99.38
2022-08-14T20:03:23.295Z,97.03
2022-08-14T20:06:05.666Z,98.03
2022-08-14T20:10:59.724Z,98.93
2022-08-14T20:11:42.951Z,99.39
2022-08-14T20:14:28.004Z,100.00
2022-08-14T20:17:05.455Z,100.00
2022-08-14T20:19:37.845Z,100.00
2022-08-14T20:22:35.614Z,100.00
2022-08-14T20:25:22.896Z,100.00
2022-08-14T20:27:59.508Z,100.00
2022-08-14T20:30:34.822Z,100.00
2022-08-14T20:33:11.208Z,100.00
2022-08-14T20:35:50.755Z,100.00
2022-08-14T20:38:29.633Z,100.00
2022-08-14T20:41:12.353Z,100.00
2022-08-14T20:44:02.881Z,100.00
2022-08-14T20:46:42.291Z,100.00
2022-08-14T20:49:19.290Z,100.00
2022-08-14T20:51:58.668Z,100.00
2022-08-14T20:54:34.305Z,100.00
2022-08-14T20:57:17.842Z,100.00
2022-08-14T20:59:53.575Z,100.00
2022-08-14T21:02:46.843Z,100.00
2022-08-14T21:05:33.301Z,100.00
2022-08-14T21:08:09.720Z,100.00
2022-08-14T21:10:56.756Z,100.00
2022-08-14T21:14:25.057Z,100.00
2022-08-14T21:16:33.065Z,100.00
2022-08-14T21:19:04.013Z,100.00
2022-08-14T21:21:41.343Z,100.00
2022-08-14T21:24:38.691Z,100.00
2022-08-14T21:27:19.754Z,100.00
2022-08-14T21:29:55.505Z,100.00
2022-08-14T21:32:35.107Z,100.00
2022-08-14T21:35:08.951Z,100.00
2022-08-14T21:37:47.499Z,100.00
2022-08-14T21:40:41.537Z,100.00
2022-08-14T21:43:17.198Z,100.00
2022-08-14T21:45:59.086Z,100.00
2022-08-14T21:48:32.334Z,100.00
2022-08-14T21:51:53.783Z,100.00
2022-08-14T21:53:59.653Z,100.00
2022-08-14T21:56:39.565Z,100.00
2022-08-14T21:59:28.957Z,100.00
2022-08-14T22:02:03.619Z,100.00
2022-08-14T22:04:41.475Z,100.00
2022-08-14T22:07:17.086Z,100.00
2022-08-14T22:09:55.405Z,100.00
2022-08-14T22:12:45.437Z,100.00
2022-08-14T22:15:18.837Z,100.00
2022-08-14T22:17:54.641Z,100.00
2022-08-14T22:20:28.047Z,100.00
2022-08-14T22:23:04.264Z,100.00
2022-08-14T22:25:41.122Z,100.00
2022-08-14T22:28:22.573Z,100.00
2022-08-14T22:30:55.052Z,100.00
2022-08-14T22:33:30.936Z,100.00
2022-08-14T22:36:25.625Z,100.00
2022-08-14T22:38:56.282Z,100.00
2022-08-14T22:41:28.325Z,100.00
2022-08-14T22:44:16.566Z,100.00
2022-08-14T22:46:45.321Z,100.00
2022-08-14T22:49:16.646Z,100.00
2022-08-14T22:52:32.977Z,100.00
2022-08-14T22:54:55.524Z,100.00
2022-08-14T22:57:38.222Z,100.00
2022-08-14T23:00:25.641Z,100.00
2022-08-14T23:03:04.017Z,100.00
2022-08-14T23:05:39.769Z,100.00
2022-08-14T23:08:57.900Z,100.00
2022-08-14T23:11:00.494Z,100.00
2022-08-14T23:13:30.948Z,100.00
2022-08-14T23:15:59.938Z,100.00
2022-08-14T23:18:29.778Z,100.00
2022-08-14T23:20:57.951Z,100.00
2022-08-14T23:23:26.353Z,100.00
2022-08-14T23:25:59.854Z,100.00
2022-08-14T23:28:34.255Z,100.00
2022-08-14T23:31:34.676Z,100.00
2022-08-14T23:34:20.665Z,100.00
2022-08-14T23:36:56.320Z,100.00
2022-08-14T23:39:34.543Z,100.00
2022-08-14T23:42:11.489Z,100.00
2022-08-14T23:44:40.373Z,100.00
2022-08-14T23:47:26.123Z,100.00
2022-08-14T23:50:00.475Z,100.00
2022-08-14T23:52:56.391Z,100.00
2022-08-14T23:55:32.193Z,100.00
2022-08-14T23:58:00.723Z,100.00
